sensor_id;sensor_type;location;lat;lon;timestamp;pressure;altitude;pressure_sealevel;temperature;humidity
53689;BME280;39583;54.682;30.662;2023-07-22T06:16:30;99161.81;;;18.98;65.31
53689;BME280;39583;54.682;30.662;2023-07-22T06:18:58;99162.28;;;19.15;65.32
53689;BME280;39583;54.682;30.662;2023-07-22T06:21:25;99164.41;;;19.23;65.27
53689;BME280;39583;54.682;30.662;2023-07-22T06:23:52;99162.19;;;19.25;65.62
53689;BME280;39583;54.682;30.662;2023-07-22T06:26:20;99158.81;;;19.38;65.13
53689;BME280;39583;54.682;30.662;2023-07-22T06:28:49;99164.03;;;19.35;64.26
53689;BME280;39583;54.682;30.662;2023-07-22T06:31:16;99158.63;;;19.30;64.40
53689;BME280;39583;54.682;30.662;2023-07-22T06:33:45;99160.25;;;19.31;63.66
53689;BME280;39583;54.682;30.662;2023-07-22T06:36:13;99155.09;;;19.24;62.99
53689;BME280;39583;54.682;30.662;2023-07-22T06:38:41;99151.84;;;19.27;62.67
53689;BME280;39583;54.682;30.662;2023-07-22T06:41:08;99151.72;;;19.42;62.64
53689;BME280;39583;54.682;30.662;2023-07-22T06:43:36;99152.88;;;19.65;62.83
53689;BME280;39583;54.682;30.662;2023-07-22T06:46:03;99152.81;;;19.76;61.27
53689;BME280;39583;54.682;30.662;2023-07-22T06:48:30;99160.75;;;19.72;61.31
53689;BME280;39583;54.682;30.662;2023-07-22T06:50:58;99158.50;;;19.79;61.22
53689;BME280;39583;54.682;30.662;2023-07-22T06:53:25;99157.38;;;19.85;61.78
53689;BME280;39583;54.682;30.662;2023-07-22T06:55:52;99155.25;;;20.06;61.75
53689;BME280;39583;54.682;30.662;2023-07-22T06:58:20;99156.22;;;20.15;60.08
53689;BME280;39583;54.682;30.662;2023-07-22T07:00:53;99156.09;;;20.01;59.89
53689;BME280;39583;54.682;30.662;2023-07-22T07:03:22;99145.25;;;19.91;60.14
53689;BME280;39583;54.682;30.662;2023-07-22T07:05:55;99140.09;;;19.90;59.61
53689;BME280;39583;54.682;30.662;2023-07-22T07:08:23;99137.34;;;19.90;59.76
53689;BME280;39583;54.682;30.662;2023-07-22T07:10:50;99140.00;;;20.00;58.88
53689;BME280;39583;54.682;30.662;2023-07-22T07:13:18;99148.69;;;20.07;58.71
53689;BME280;39583;54.682;30.662;2023-07-22T07:15:47;99155.66;;;20.18;58.55
53689;BME280;39583;54.682;30.662;2023-07-22T07:18:18;99158.53;;;20.32;57.87
53689;BME280;39583;54.682;30.662;2023-07-22T07:20:45;99165.47;;;20.48;57.40
53689;BME280;39583;54.682;30.662;2023-07-22T07:23:13;99158.00;;;20.54;56.14
53689;BME280;39583;54.682;30.662;2023-07-22T07:25:43;99161.25;;;20.32;55.01
53689;BME280;39583;54.682;30.662;2023-07-22T07:28:10;99161.94;;;20.19;54.85
53689;BME280;39583;54.682;30.662;2023-07-22T07:30:40;99157.53;;;20.23;55.62
53689;BME280;39583;54.682;30.662;2023-07-22T07:33:07;99175.34;;;20.44;55.33
53689;BME280;39583;54.682;30.662;2023-07-22T07:35:34;99170.34;;;20.51;55.66
53689;BME280;39583;54.682;30.662;2023-07-22T07:38:02;99167.19;;;20.63;54.77
53689;BME280;39583;54.682;30.662;2023-07-22T07:40:30;99169.13;;;20.63;54.92
53689;BME280;39583;54.682;30.662;2023-07-22T07:42:59;99171.22;;;20.89;54.47
53689;BME280;39583;54.682;30.662;2023-07-22T07:45:26;99168.78;;;20.88;53.55
53689;BME280;39583;54.682;30.662;2023-07-22T07:47:53;99170.31;;;20.75;52.57
53689;BME280;39583;54.682;30.662;2023-07-22T07:50:21;99173.59;;;20.53;52.43
53689;BME280;39583;54.682;30.662;2023-07-22T07:52:48;99173.16;;;20.46;53.00
53689;BME280;39583;54.682;30.662;2023-07-22T07:55:15;99175.75;;;20.56;52.26
53689;BME280;39583;54.682;30.662;2023-07-22T07:57:45;99168.25;;;20.43;51.93
53689;BME280;39583;54.682;30.662;2023-07-22T08:00:13;99170.00;;;20.29;51.75
53689;BME280;39583;54.682;30.662;2023-07-22T08:02:41;99171.00;;;20.38;52.14
53689;BME280;39583;54.682;30.662;2023-07-22T08:05:08;99163.13;;;20.60;52.44
53689;BME280;39583;54.682;30.662;2023-07-22T08:07:35;99162.09;;;20.75;52.36
53689;BME280;39583;54.682;30.662;2023-07-22T08:10:04;99160.72;;;20.97;52.32
53689;BME280;39583;54.682;30.662;2023-07-22T08:12:32;99151.41;;;21.16;51.44
53689;BME280;39583;54.682;30.662;2023-07-22T08:14:59;99152.13;;;21.22;50.71
53689;BME280;39583;54.682;30.662;2023-07-22T08:17:26;99160.41;;;21.17;50.78
53689;BME280;39583;54.682;30.662;2023-07-22T08:19:54;99145.41;;;21.14;51.18
53689;BME280;39583;54.682;30.662;2023-07-22T08:22:21;99161.53;;;21.35;50.81
53689;BME280;39583;54.682;30.662;2023-07-22T08:24:48;99161.16;;;21.41;50.69
53689;BME280;39583;54.682;30.662;2023-07-22T08:27:16;99154.13;;;21.35;50.40
53689;BME280;39583;54.682;30.662;2023-07-22T08:29:43;99164.13;;;21.45;50.26
53689;BME280;39583;54.682;30.662;2023-07-22T08:32:11;99164.13;;;21.45;50.32
53689;BME280;39583;54.682;30.662;2023-07-22T08:34:38;99165.44;;;21.66;50.33
53689;BME280;39583;54.682;30.662;2023-07-22T08:37:05;99171.66;;;21.86;49.08
53689;BME280;39583;54.682;30.662;2023-07-22T08:39:33;99171.78;;;21.94;48.38
53689;BME280;39583;54.682;30.662;2023-07-22T08:42:03;99173.94;;;21.65;47.65
53689;BME280;39583;54.682;30.662;2023-07-22T08:44:32;99169.00;;;21.48;47.90
53689;BME280;39583;54.682;30.662;2023-07-22T08:47:03;99187.41;;;21.61;48.32
53689;BME280;39583;54.682;30.662;2023-07-22T08:49:32;99184.34;;;21.82;47.61
53689;BME280;39583;54.682;30.662;2023-07-22T08:52:00;99183.25;;;21.96;47.89
53689;BME280;39583;54.682;30.662;2023-07-22T08:54:28;99199.06;;;22.18;47.35
53689;BME280;39583;54.682;30.662;2023-07-22T08:56:56;99210.03;;;22.18;45.68
53689;BME280;39583;54.682;30.662;2023-07-22T08:59:24;99215.94;;;22.25;45.57
53689;BME280;39583;54.682;30.662;2023-07-22T09:01:52;99208.25;;;22.55;45.60
53689;BME280;39583;54.682;30.662;2023-07-22T09:04:22;99203.38;;;22.93;45.05
53689;BME280;39583;54.682;30.662;2023-07-22T09:06:50;99193.63;;;23.23;44.90
53689;BME280;39583;54.682;30.662;2023-07-22T09:09:18;99197.09;;;23.15;44.62
53689;BME280;39583;54.682;30.662;2023-07-22T09:11:47;99197.84;;;23.07;44.97
53689;BME280;39583;54.682;30.662;2023-07-22T09:14:17;99196.34;;;23.37;45.39
53689;BME280;39583;54.682;30.662;2023-07-22T09:17:01;99201.84;;;23.73;43.37
53689;BME280;39583;54.682;30.662;2023-07-22T09:19:30;99199.72;;;23.56;41.97
53689;BME280;39583;54.682;30.662;2023-07-22T09:21:57;99190.28;;;23.62;43.25
53689;BME280;39583;54.682;30.662;2023-07-22T09:24:26;99182.13;;;23.57;43.54
53689;BME280;39583;54.682;30.662;2023-07-22T09:26:55;99197.50;;;23.80;43.69
53689;BME280;39583;54.682;30.662;2023-07-22T09:29:42;99202.06;;;23.85;42.26
53689;BME280;39583;54.682;30.662;2023-07-22T09:32:12;99191.41;;;23.61;41.75
53689;BME280;39583;54.682;30.662;2023-07-22T09:34:54;99190.44;;;23.30;42.36
53689;BME280;39583;54.682;30.662;2023-07-22T09:37:21;99187.66;;;23.21;42.71
53689;BME280;39583;54.682;30.662;2023-07-22T09:39:49;99188.38;;;23.13;43.49
53689;BME280;39583;54.682;30.662;2023-07-22T09:42:24;99199.09;;;22.87;44.00
53689;BME280;39583;54.682;30.662;2023-07-22T09:44:54;99198.97;;;22.64;43.11
53689;BME280;39583;54.682;30.662;2023-07-22T09:47:21;99185.88;;;22.75;43.44
53689;BME280;39583;54.682;30.662;2023-07-22T09:49:49;99178.84;;;22.97;42.47
53689;BME280;39583;54.682;30.662;2023-07-22T09:52:16;99173.16;;;23.07;42.17
53689;BME280;39583;54.682;30.662;2023-07-22T09:54:47;99169.38;;;23.03;41.51
53689;BME280;39583;54.682;30.662;2023-07-22T09:57:16;99182.94;;;22.72;42.02
53689;BME280;39583;54.682;30.662;2023-07-22T09:59:44;99184.97;;;22.66;42.34
53689;BME280;39583;54.682;30.662;2023-07-22T10:02:11;99179.47;;;22.52;42.06
53689;BME280;39583;54.682;30.662;2023-07-22T10:04:39;99180.50;;;22.56;41.84
53689;BME280;39583;54.682;30.662;2023-07-22T10:07:08;99165.34;;;22.86;42.30
53689;BME280;39583;54.682;30.662;2023-07-22T10:09:37;99160.00;;;23.04;42.33
53689;BME280;39583;54.682;30.662;2023-07-22T10:12:05;99164.00;;;23.34;42.27
53689;BME280;39583;54.682;30.662;2023-07-22T10:14:34;99165.34;;;23.59;41.24
53689;BME280;39583;54.682;30.662;2023-07-22T10:17:05;99163.13;;;23.47;40.83
53689;BME280;39583;54.682;30.662;2023-07-22T10:19:33;99178.72;;;23.38;41.01
53689;BME280;39583;54.682;30.662;2023-07-22T10:22:01;99170.66;;;23.41;41.29
53689;BME280;39583;54.682;30.662;2023-07-22T10:24:29;99168.19;;;23.53;40.66
53689;BME280;39583;54.682;30.662;2023-07-22T10:26:57;99162.00;;;23.48;40.37
53689;BME280;39583;54.682;30.662;2023-07-22T10:29:25;99170.78;;;23.72;40.56
53689;BME280;39583;54.682;30.662;2023-07-22T10:31:53;99165.53;;;23.85;39.79
53689;BME280;39583;54.682;30.662;2023-07-22T10:34:21;99159.78;;;24.03;39.80
53689;BME280;39583;54.682;30.662;2023-07-22T10:36:50;99155.41;;;24.02;38.75
53689;BME280;39583;54.682;30.662;2023-07-22T10:39:28;99159.38;;;23.88;38.68
53689;BME280;39583;54.682;30.662;2023-07-22T10:42:00;99163.03;;;23.74;39.00
53689;BME280;39583;54.682;30.662;2023-07-22T10:44:35;99165.03;;;23.60;38.92
53689;BME280;39583;54.682;30.662;2023-07-22T10:47:03;99158.91;;;23.63;38.97
53689;BME280;39583;54.682;30.662;2023-07-22T10:49:48;99158.13;;;23.49;38.26
53689;BME280;39583;54.682;30.662;2023-07-22T10:52:45;99160.44;;;23.33;38.08
53689;BME280;39583;54.682;30.662;2023-07-22T10:55:15;99157.31;;;23.26;38.37
53689;BME280;39583;54.682;30.662;2023-07-22T10:57:50;99156.19;;;23.27;38.77
53689;BME280;39583;54.682;30.662;2023-07-22T11:00:20;99144.00;;;23.42;39.79
53689;BME280;39583;54.682;30.662;2023-07-22T11:03:13;99137.63;;;23.55;39.50
53689;BME280;39583;54.682;30.662;2023-07-22T11:08:16;99140.81;;;23.26;39.18
53689;BME280;39583;54.682;30.662;2023-07-22T11:10:53;99138.75;;;23.09;39.41
53689;BME280;39583;54.682;30.662;2023-07-22T11:13:28;99128.44;;;23.15;39.88
53689;BME280;39583;54.682;30.662;2023-07-22T11:15:58;99136.28;;;23.21;39.88
53689;BME280;39583;54.682;30.662;2023-07-22T11:18:39;99128.72;;;23.27;39.30
53689;BME280;39583;54.682;30.662;2023-07-22T11:21:09;99125.09;;;23.40;39.46
53689;BME280;39583;54.682;30.662;2023-07-22T11:23:37;99122.59;;;23.30;39.00
53689;BME280;39583;54.682;30.662;2023-07-22T11:26:04;99113.41;;;23.12;38.99
53689;BME280;39583;54.682;30.662;2023-07-22T11:28:32;99124.53;;;23.30;39.54
53689;BME280;39583;54.682;30.662;2023-07-22T11:31:00;99126.47;;;23.74;39.66
53689;BME280;39583;54.682;30.662;2023-07-22T11:33:37;99118.34;;;24.31;40.12
53689;BME280;39583;54.682;30.662;2023-07-22T11:36:05;99110.34;;;24.69;39.32
53689;BME280;39583;54.682;30.662;2023-07-22T11:38:33;99110.22;;;24.91;38.65
53689;BME280;39583;54.682;30.662;2023-07-22T11:41:01;99117.84;;;25.12;38.61
53689;BME280;39583;54.682;30.662;2023-07-22T11:43:29;99116.56;;;25.18;38.40
53689;BME280;39583;54.682;30.662;2023-07-22T11:45:56;99114.78;;;25.39;38.48
53689;BME280;39583;54.682;30.662;2023-07-22T11:48:24;99116.81;;;25.77;38.60
53689;BME280;39583;54.682;30.662;2023-07-22T11:50:51;99118.09;;;25.88;38.40
53689;BME280;39583;54.682;30.662;2023-07-22T11:53:18;99112.66;;;26.09;38.00
53689;BME280;39583;54.682;30.662;2023-07-22T11:55:46;99087.69;;;26.05;37.73
53689;BME280;39583;54.682;30.662;2023-07-22T11:58:14;99114.66;;;26.38;37.18
53689;BME280;39583;54.682;30.662;2023-07-22T12:00:44;99120.16;;;26.47;37.28
53689;BME280;39583;54.682;30.662;2023-07-22T12:03:34;99119.13;;;26.13;37.34
53689;BME280;39583;54.682;30.662;2023-07-22T12:06:03;99114.25;;;25.80;38.21
53689;BME280;39583;54.682;30.662;2023-07-22T12:08:31;99112.41;;;25.93;37.71
53689;BME280;39583;54.682;30.662;2023-07-22T12:10:58;99108.25;;;25.78;37.16
53689;BME280;39583;54.682;30.662;2023-07-22T12:13:26;99107.75;;;25.59;36.49
53689;BME280;39583;54.682;30.662;2023-07-22T12:16:00;99102.91;;;25.47;38.28
53689;BME280;39583;54.682;30.662;2023-07-22T12:18:41;99108.06;;;25.75;38.34
53689;BME280;39583;54.682;30.662;2023-07-22T12:21:08;99099.75;;;25.92;37.42
53689;BME280;39583;54.682;30.662;2023-07-22T12:23:37;99096.69;;;25.85;37.21
53689;BME280;39583;54.682;30.662;2023-07-22T12:26:05;99096.72;;;25.76;37.66
53689;BME280;39583;54.682;30.662;2023-07-22T12:28:33;99083.56;;;25.82;37.50
53689;BME280;39583;54.682;30.662;2023-07-22T12:31:00;99093.47;;;26.21;36.69
53689;BME280;39583;54.682;30.662;2023-07-22T12:33:28;99094.16;;;26.48;37.15
53689;BME280;39583;54.682;30.662;2023-07-22T12:35:56;99092.97;;;26.57;37.11
53689;BME280;39583;54.682;30.662;2023-07-22T12:38:24;99089.66;;;26.64;36.43
53689;BME280;39583;54.682;30.662;2023-07-22T12:40:51;99087.31;;;26.74;36.33
53689;BME280;39583;54.682;30.662;2023-07-22T12:43:18;99076.06;;;26.80;36.38
53689;BME280;39583;54.682;30.662;2023-07-22T12:45:46;99072.50;;;26.58;36.28
53689;BME280;39583;54.682;30.662;2023-07-22T12:48:13;99076.50;;;26.69;36.88
53689;BME280;39583;54.682;30.662;2023-07-22T12:50:41;99068.25;;;26.82;35.87
53689;BME280;39583;54.682;30.662;2023-07-22T12:53:08;99069.19;;;26.65;36.60
53689;BME280;39583;54.682;30.662;2023-07-22T12:55:36;99077.00;;;26.33;36.32
53689;BME280;39583;54.682;30.662;2023-07-22T12:58:03;99069.38;;;26.01;37.17
53689;BME280;39583;54.682;30.662;2023-07-22T13:00:31;99060.50;;;26.25;38.42
53689;BME280;39583;54.682;30.662;2023-07-22T13:02:58;99060.91;;;26.44;37.48
53689;BME280;39583;54.682;30.662;2023-07-22T13:05:25;99061.88;;;26.39;37.46
53689;BME280;39583;54.682;30.662;2023-07-22T13:07:53;99061.72;;;26.06;37.62
53689;BME280;39583;54.682;30.662;2023-07-22T13:10:20;99055.41;;;25.50;38.47
53689;BME280;39583;54.682;30.662;2023-07-22T13:12:58;99063.25;;;25.22;39.39
53689;BME280;39583;54.682;30.662;2023-07-22T13:15:26;99052.25;;;25.05;39.48
53689;BME280;39583;54.682;30.662;2023-07-22T13:17:53;99059.03;;;24.90;39.76
53689;BME280;39583;54.682;30.662;2023-07-22T13:20:21;99063.06;;;24.93;39.28
53689;BME280;39583;54.682;30.662;2023-07-22T13:22:48;99050.47;;;25.01;39.06
53689;BME280;39583;54.682;30.662;2023-07-22T13:25:16;99053.22;;;25.09;38.31
53689;BME280;39583;54.682;30.662;2023-07-22T13:27:43;99057.56;;;25.19;37.57
53689;BME280;39583;54.682;30.662;2023-07-22T13:30:10;99058.06;;;25.29;37.57
53689;BME280;39583;54.682;30.662;2023-07-22T13:32:38;99052.69;;;25.42;36.79
53689;BME280;39583;54.682;30.662;2023-07-22T13:35:07;99048.59;;;25.48;36.76
53689;BME280;39583;54.682;30.662;2023-07-22T13:37:35;99045.22;;;25.42;35.19
53689;BME280;39583;54.682;30.662;2023-07-22T13:40:03;99044.56;;;25.37;35.83
53689;BME280;39583;54.682;30.662;2023-07-22T13:42:37;99037.25;;;25.49;35.70
53689;BME280;39583;54.682;30.662;2023-07-22T13:45:05;99036.41;;;25.57;35.59
53689;BME280;39583;54.682;30.662;2023-07-22T13:47:33;99047.78;;;25.47;36.31
53689;BME280;39583;54.682;30.662;2023-07-22T13:50:00;99033.00;;;25.61;36.84
53689;BME280;39583;54.682;30.662;2023-07-22T13:52:28;99035.78;;;25.99;36.44
53689;BME280;39583;54.682;30.662;2023-07-22T13:54:55;99030.38;;;26.40;35.54
53689;BME280;39583;54.682;30.662;2023-07-22T13:57:23;99026.91;;;26.23;35.56
53689;BME280;39583;54.682;30.662;2023-07-22T13:59:50;99032.28;;;26.19;35.34
53689;BME280;39583;54.682;30.662;2023-07-22T14:02:17;99031.41;;;25.98;36.35
53689;BME280;39583;54.682;30.662;2023-07-22T14:04:45;99027.72;;;25.94;36.31
53689;BME280;39583;54.682;30.662;2023-07-22T14:07:12;99022.19;;;25.94;36.08
53689;BME280;39583;54.682;30.662;2023-07-22T14:09:39;99013.81;;;26.11;36.61
53689;BME280;39583;54.682;30.662;2023-07-22T14:12:07;99025.16;;;26.18;35.70
53689;BME280;39583;54.682;30.662;2023-07-22T14:14:34;99009.53;;;26.22;36.11
53689;BME280;39583;54.682;30.662;2023-07-22T14:17:02;99012.09;;;26.27;36.18
53689;BME280;39583;54.682;30.662;2023-07-22T14:19:30;99010.03;;;25.95;35.64
53689;BME280;39583;54.682;30.662;2023-07-22T14:21:57;99013.81;;;25.81;36.99
53689;BME280;39583;54.682;30.662;2023-07-22T14:24:24;99010.94;;;26.07;36.29
53689;BME280;39583;54.682;30.662;2023-07-22T14:26:52;99004.91;;;26.35;36.61
53689;BME280;39583;54.682;30.662;2023-07-22T14:29:19;98998.59;;;26.55;36.66
53689;BME280;39583;54.682;30.662;2023-07-22T14:31:48;98995.91;;;26.67;36.08
53689;BME280;39583;54.682;30.662;2023-07-22T14:34:15;99006.09;;;26.25;36.59
53689;BME280;39583;54.682;30.662;2023-07-22T14:36:42;99000.94;;;25.94;36.72
53689;BME280;39583;54.682;30.662;2023-07-22T14:39:11;99006.16;;;25.87;36.76
53689;BME280;39583;54.682;30.662;2023-07-22T14:41:40;99002.47;;;25.74;36.48
53689;BME280;39583;54.682;30.662;2023-07-22T14:44:09;98999.38;;;25.76;36.87
53689;BME280;39583;54.682;30.662;2023-07-22T14:46:36;99000.38;;;25.80;36.31
53689;BME280;39583;54.682;30.662;2023-07-22T14:49:04;98996.06;;;25.91;36.84
53689;BME280;39583;54.682;30.662;2023-07-22T14:51:32;98992.78;;;25.98;36.92
53689;BME280;39583;54.682;30.662;2023-07-22T14:53:59;98988.78;;;25.86;37.05
53689;BME280;39583;54.682;30.662;2023-07-22T14:56:26;98988.53;;;25.62;37.73
53689;BME280;39583;54.682;30.662;2023-07-22T14:58:54;98962.28;;;25.26;38.40
53689;BME280;39583;54.682;30.662;2023-07-22T15:01:22;98990.66;;;25.18;38.10
53689;BME280;39583;54.682;30.662;2023-07-22T15:03:49;98993.41;;;24.84;39.27
53689;BME280;39583;54.682;30.662;2023-07-22T15:06:17;98984.84;;;24.59;39.73
53689;BME280;39583;54.682;30.662;2023-07-22T15:08:44;98983.22;;;24.41;40.51
53689;BME280;39583;54.682;30.662;2023-07-22T15:11:12;98984.84;;;24.42;41.31
53689;BME280;39583;54.682;30.662;2023-07-22T15:13:39;98975.44;;;24.43;41.52
53689;BME280;39583;54.682;30.662;2023-07-22T15:16:07;98979.81;;;24.44;41.22
53689;BME280;39583;54.682;30.662;2023-07-22T15:18:34;98981.44;;;24.45;41.33
53689;BME280;39583;54.682;30.662;2023-07-22T15:21:01;98975.59;;;24.47;41.80
53689;BME280;39583;54.682;30.662;2023-07-22T15:23:29;98971.72;;;24.39;42.38
53689;BME280;39583;54.682;30.662;2023-07-22T15:25:56;98976.91;;;24.32;42.44
53689;BME280;39583;54.682;30.662;2023-07-22T15:28:24;98977.03;;;24.27;42.51
53689;BME280;39583;54.682;30.662;2023-07-22T15:30:53;98975.25;;;24.22;42.92
53689;BME280;39583;54.682;30.662;2023-07-22T15:33:21;98968.13;;;24.12;42.68
53689;BME280;39583;54.682;30.662;2023-07-22T15:35:48;98969.69;;;23.88;43.29
53689;BME280;39583;54.682;30.662;2023-07-22T15:38:16;98983.41;;;23.57;43.55
53689;BME280;39583;54.682;30.662;2023-07-22T15:40:44;98976.56;;;23.37;43.84
53689;BME280;39583;54.682;30.662;2023-07-22T15:43:11;98972.59;;;23.20;44.87
53689;BME280;39583;54.682;30.662;2023-07-22T15:45:39;98976.03;;;23.04;44.46
53689;BME280;39583;54.682;30.662;2023-07-22T15:48:06;98971.56;;;22.85;45.15
53689;BME280;39583;54.682;30.662;2023-07-22T15:50:33;98970.31;;;22.69;45.58
53689;BME280;39583;54.682;30.662;2023-07-22T15:53:01;98966.34;;;22.61;46.05
53689;BME280;39583;54.682;30.662;2023-07-22T15:55:28;98964.06;;;22.55;46.56
53689;BME280;39583;54.682;30.662;2023-07-22T15:57:56;98969.22;;;22.56;46.90
53689;BME280;39583;54.682;30.662;2023-07-22T16:00:23;98966.72;;;22.46;46.81
53689;BME280;39583;54.682;30.662;2023-07-22T16:02:51;98974.28;;;22.41;47.29
53689;BME280;39583;54.682;30.662;2023-07-22T16:05:19;98969.09;;;22.25;47.68
53689;BME280;39583;54.682;30.662;2023-07-22T16:07:50;98970.97;;;22.16;48.17
53689;BME280;39583;54.682;30.662;2023-07-22T16:10:17;98960.59;;;21.99;48.75
53689;BME280;39583;54.682;30.662;2023-07-22T16:12:45;98970.16;;;22.02;49.10
53689;BME280;39583;54.682;30.662;2023-07-22T16:15:13;98976.53;;;21.97;49.40
53689;BME280;39583;54.682;30.662;2023-07-22T16:17:40;98966.81;;;21.91;49.81
53689;BME280;39583;54.682;30.662;2023-07-22T16:20:08;98973.72;;;21.89;50.07
53689;BME280;39583;54.682;30.662;2023-07-22T16:22:37;98969.97;;;21.85;50.40
53689;BME280;39583;54.682;30.662;2023-07-22T16:25:07;98973.00;;;21.83;50.59
53689;BME280;39583;54.682;30.662;2023-07-22T16:30:05;98967.66;;;21.64;51.23
53689;BME280;39583;54.682;30.662;2023-07-22T16:32:33;98963.88;;;21.60;51.55
53689;BME280;39583;54.682;30.662;2023-07-22T16:35:00;98963.97;;;21.55;51.56
53689;BME280;39583;54.682;30.662;2023-07-22T16:37:29;98975.94;;;21.45;51.85
53689;BME280;39583;54.682;30.662;2023-07-22T16:39:56;98975.75;;;21.42;52.11
53689;BME280;39583;54.682;30.662;2023-07-22T16:42:24;98983.53;;;21.35;52.62
53689;BME280;39583;54.682;30.662;2023-07-22T16:44:51;98983.94;;;21.28;52.82
53689;BME280;39583;54.682;30.662;2023-07-22T16:47:19;98969.78;;;21.21;53.22
53689;BME280;39583;54.682;30.662;2023-07-22T16:49:46;98982.06;;;21.10;53.83
53689;BME280;39583;54.682;30.662;2023-07-22T16:52:14;98972.69;;;20.97;54.13
53689;BME280;39583;54.682;30.662;2023-07-22T16:54:41;98977.00;;;20.84;54.25
53689;BME280;39583;54.682;30.662;2023-07-22T16:57:09;98974.75;;;20.73;54.74
53689;BME280;39583;54.682;30.662;2023-07-22T16:59:36;98970.84;;;20.60;55.29
53689;BME280;39583;54.682;30.662;2023-07-22T17:02:04;98971.59;;;20.47;55.81
53689;BME280;39583;54.682;30.662;2023-07-22T17:04:31;98968.16;;;20.36;56.14
53689;BME280;39583;54.682;30.662;2023-07-22T17:06:58;98971.03;;;20.26;56.54
53689;BME280;39583;54.682;30.662;2023-07-22T17:09:28;98970.88;;;20.17;56.71
53689;BME280;39583;54.682;30.662;2023-07-22T17:11:56;98968.00;;;20.09;57.23
53689;BME280;39583;54.682;30.662;2023-07-22T17:14:23;98969.25;;;19.97;57.47
53689;BME280;39583;54.682;30.662;2023-07-22T17:16:51;98974.19;;;19.95;57.84
53689;BME280;39583;54.682;30.662;2023-07-22T17:19:18;98973.72;;;19.88;57.86
53689;BME280;39583;54.682;30.662;2023-07-22T17:21:45;98972.72;;;19.79;58.31
53689;BME280;39583;54.682;30.662;2023-07-22T17:24:12;98977.75;;;19.72;58.21
53689;BME280;39583;54.682;30.662;2023-07-22T17:26:40;98970.19;;;19.64;58.48
53689;BME280;39583;54.682;30.662;2023-07-22T17:29:09;98977.94;;;19.57;58.58
53689;BME280;39583;54.682;30.662;2023-07-22T17:31:38;98968.13;;;19.51;58.78
53689;BME280;39583;54.682;30.662;2023-07-22T17:34:06;98975.88;;;19.43;58.89
53689;BME280;39583;54.682;30.662;2023-07-22T17:36:33;98977.53;;;19.39;59.20
53689;BME280;39583;54.682;30.662;2023-07-22T17:39:01;98973.53;;;19.32;59.69
53689;BME280;39583;54.682;30.662;2023-07-22T17:41:28;98970.31;;;19.25;59.93
53689;BME280;39583;54.682;30.662;2023-07-22T17:43:56;98973.09;;;19.20;60.33
53689;BME280;39583;54.682;30.662;2023-07-22T17:46:23;98973.44;;;19.13;60.45
53689;BME280;39583;54.682;30.662;2023-07-22T17:48:51;98971.06;;;19.06;61.03
53689;BME280;39583;54.682;30.662;2023-07-22T17:51:19;98966.19;;;18.98;61.23
53689;BME280;39583;54.682;30.662;2023-07-22T17:53:48;98977.13;;;18.98;61.69
53689;BME280;39583;54.682;30.662;2023-07-22T17:56:15;98981.53;;;18.94;61.81
53689;BME280;39583;54.682;30.662;2023-07-22T17:58:42;98985.41;;;18.88;62.29
53689;BME280;39583;54.682;30.662;2023-07-22T18:01:11;98989.59;;;18.75;62.76
53689;BME280;39583;54.682;30.662;2023-07-22T18:03:40;98992.66;;;18.69;63.30
53689;BME280;39583;54.682;30.662;2023-07-22T18:06:08;98996.22;;;18.64;63.60
53689;BME280;39583;54.682;30.662;2023-07-22T18:08:35;98986.13;;;18.60;64.18
53689;BME280;39583;54.682;30.662;2023-07-22T18:11:04;98992.69;;;18.58;64.70
53689;BME280;39583;54.682;30.662;2023-07-22T18:13:31;99000.34;;;18.56;65.32
53689;BME280;39583;54.682;30.662;2023-07-22T18:15:59;98998.19;;;18.53;66.15
53689;BME280;39583;54.682;30.662;2023-07-22T18:18:26;98999.84;;;18.49;66.65
53689;BME280;39583;54.682;30.662;2023-07-22T18:20:54;99000.09;;;18.48;67.16
53689;BME280;39583;54.682;30.662;2023-07-22T18:23:22;99000.97;;;18.43;67.62
53689;BME280;39583;54.682;30.662;2023-07-22T18:25:50;99008.38;;;18.38;68.02
53689;BME280;39583;54.682;30.662;2023-07-22T18:28:19;99004.03;;;18.32;68.45
53689;BME280;39583;54.682;30.662;2023-07-22T18:30:46;99004.31;;;18.30;68.92
53689;BME280;39583;54.682;30.662;2023-07-22T18:33:14;99003.53;;;18.24;69.24
53689;BME280;39583;54.682;30.662;2023-07-22T18:35:49;98995.94;;;18.16;69.67
53689;BME280;39583;54.682;30.662;2023-07-22T18:38:18;99001.69;;;18.15;69.88
53689;BME280;39583;54.682;30.662;2023-07-22T18:40:46;98993.78;;;18.08;70.11
53689;BME280;39583;54.682;30.662;2023-07-22T18:43:14;98997.63;;;18.07;70.41
53689;BME280;39583;54.682;30.662;2023-07-22T18:45:41;99006.63;;;18.03;70.85
53689;BME280;39583;54.682;30.662;2023-07-22T18:48:10;99000.13;;;17.98;71.07
53689;BME280;39583;54.682;30.662;2023-07-22T18:50:37;99004.19;;;17.96;71.16
53689;BME280;39583;54.682;30.662;2023-07-22T18:53:05;99005.06;;;17.91;71.40
53689;BME280;39583;54.682;30.662;2023-07-22T18:55:34;98994.19;;;17.81;71.66
53689;BME280;39583;54.682;30.662;2023-07-22T18:58:02;99007.28;;;17.84;71.88
53689;BME280;39583;54.682;30.662;2023-07-22T19:00:29;99008.63;;;17.82;72.17
53689;BME280;39583;54.682;30.662;2023-07-22T19:02:56;99002.09;;;17.78;72.10
53689;BME280;39583;54.682;30.662;2023-07-22T19:05:24;99016.28;;;17.75;72.25
53689;BME280;39583;54.682;30.662;2023-07-22T19:07:51;99019.56;;;17.72;72.41
53689;BME280;39583;54.682;30.662;2023-07-22T19:10:19;99017.38;;;17.68;72.64
53689;BME280;39583;54.682;30.662;2023-07-22T19:12:46;99017.09;;;17.65;72.83
53689;BME280;39583;54.682;30.662;2023-07-22T19:15:14;99012.50;;;17.60;72.75
